Flight Track Log - Related Links

Times and Time Zones

All times are in EDT time to prevent confusion due to time zone crossing. See the QTR875 flight status page for this flight to view local times or setup timezone preferences in your user account.

Time Position Orientation Groundspeed Altitude Reporting Facility
EDT Latitude Longitude Course Direction KTS MPH feet Rate Location/Type
Tue 02:31:00 PM 23.7945 111.6874 286° West  Level Estimated
Tue 02:32:00 PM 23.8273 111.5526 285° West  Level Estimated
Tue 02:33:00 PM 23.8599 111.4178 285° West  Level Estimated
Tue 02:34:00 PM 23.8924 111.2830 285° West  Level Estimated
Tue 02:35:00 PM 23.9248 111.1480 285° West  Level Estimated
Tue 02:36:00 PM 23.9571 111.0130 285° West  Level Estimated
Tue 02:37:00 PM 23.9893 110.8780 285° West  Level Estimated
Tue 02:37:56 PM 22.0227 112.9495 212° Southwest 401 461 23,600  Level FlightAware ADS-B
Tue 02:41:39 PM 21.6560 112.7060 212° Southwest 452 520 27,400 816 Climbing FlightAware ADS-B
Tue 02:42:50 PM 21.5205 112.6142 224° Southwest 454 522 27,600 130 Climbing FlightAware ADS-B
Tue 02:43:11 PM 21.4923 112.5838 240° Southwest 447 514 27,600 94 Level FlightAware ADS-B
Tue 02:45:00 PM 21.5585 112.3452 287° West  Level Estimated
Tue 02:46:00 PM 21.5948 112.2137 287° West  Level Estimated
Tue 02:47:00 PM 21.6310 112.0821 287° West  Level Estimated
Tue 02:48:00 PM 21.6671 111.9505 286° West  Level Estimated
Tue 02:49:00 PM 21.7031 111.8189 286° West  Level Estimated
Tue 02:50:00 PM 21.7390 111.6871 286° West  Level Estimated
Tue 02:51:00 PM 21.7748 111.5553 286° West  Level Estimated
Tue 02:52:00 PM 21.8105 111.4234 286° West  Level Estimated
Tue 02:53:00 PM 21.8461 111.2915 286° West  Level Estimated
Tue 02:54:00 PM 21.8815 111.1595 286° West  Level Estimated
Tue 02:55:00 PM 21.9169 111.0275 286° West  Level Estimated
Tue 02:56:00 PM 21.9522 110.8953 286° West  Level Estimated
Tue 02:57:00 PM 21.9873 110.7631 286° West  Level Estimated
Tue 02:58:00 PM 22.0224 110.6309 286° West  Level Estimated
Tue 02:59:00 PM 22.0573 110.4985 286° West  Level Estimated
Tue 03:00:00 PM 22.0922 110.3661 286° West  Level Estimated
Tue 03:01:00 PM 22.1269 110.2337 286° West  Level Estimated
Tue 03:02:00 PM 22.1615 110.1012 286° West  Level Estimated
Tue 03:03:00 PM 22.1961 109.9686 286° West  Level Estimated
Tue 03:04:00 PM 22.2305 109.8359 286° West  Level Estimated
Tue 03:05:00 PM 22.2648 109.7032 286° West  Level Estimated
Tue 03:06:00 PM 22.2990 109.5704 286° West  Level Estimated
Tue 03:07:00 PM 22.3331 109.4376 286° West  Level Estimated
Tue 03:08:00 PM 22.3670 109.3046 285° West  Level Estimated
Tue 03:09:00 PM 22.4009 109.1717 285° West  Level Estimated
Tue 03:10:00 PM 22.4347 109.0386 285° West  Level Estimated
Tue 03:11:00 PM 22.4683 108.9055 285° West  Level Estimated
Tue 03:12:00 PM 22.5019 108.7723 285° West  Level Estimated
Tue 03:13:00 PM 22.5353 108.6391 285° West  Level Estimated
Tue 03:14:00 PM 22.5686 108.5058 285° West  Level Estimated
Tue 03:15:00 PM 22.6019 108.3725 285° West  Level Estimated
Tue 03:16:00 PM 22.6350 108.2390 285° West  Level Estimated
Tue 03:17:00 PM 22.6680 108.1055 285° West  Level Estimated
Tue 03:18:00 PM 22.7008 107.9720 285° West  Level Estimated
Tue 03:19:00 PM 22.7336 107.8383 285° West  Level Estimated
Tue 03:20:00 PM 22.7663 107.7047 285° West  Level Estimated
Tue 03:21:00 PM 22.7988 107.5709 285° West  Level Estimated
Tue 03:22:00 PM 22.8313 107.4371 285° West  Level Estimated
Tue 03:23:00 PM 22.8636 107.3032 285° West  Level Estimated
Tue 03:24:00 PM 22.8958 107.1693 285° West  Level Estimated
Tue 03:25:00 PM 22.9279 107.0353 285° West  Level Estimated
Tue 03:26:00 PM 22.9599 106.9012 285° West  Level Estimated
Tue 03:27:00 PM 22.9918 106.7671 285° West  Level Estimated
Tue 03:28:00 PM 23.0236 106.6329 284° West  Level Estimated
Tue 03:29:00 PM 23.0552 106.4986 284° West  Level Estimated
Tue 03:30:00 PM 23.0867 106.3643 284° West  Level Estimated
Tue 03:31:00 PM 23.1182 106.2299 284° West  Level Estimated
Tue 03:32:00 PM 23.1495 106.0955 284° West  Level Estimated
Tue 03:33:00 PM 23.1807 105.9610 284° West  Level Estimated
Tue 03:34:00 PM 23.2118 105.8264 284° West  Level Estimated
Tue 03:35:00 PM 23.2427 105.6918 284° West  Level Estimated
Tue 03:36:00 PM 23.2736 105.5571 284° West  Level Estimated
Tue 03:37:00 PM 23.3043 105.4223 284° West  Level Estimated
Tue 03:38:00 PM 23.3349 105.2875 284° West  Level Estimated
Tue 03:39:00 PM 23.3654 105.1526 284° West  Level Estimated
Tue 03:40:00 PM 23.3958 105.0176 284° West  Level Estimated
Tue 03:41:00 PM 23.4261 104.8827 284° West  Level Estimated
Tue 03:42:00 PM 23.4563 104.7476 284° West  Level Estimated
Tue 03:43:00 PM 23.4863 104.6124 284° West  Level Estimated
Tue 03:44:00 PM 23.5162 104.4773 284° West  Level Estimated
Tue 03:45:00 PM 23.5460 104.3420 284° West  Level Estimated
Tue 03:46:00 PM 23.5758 104.2067 283° West  Level Estimated
Tue 03:47:00 PM 23.6053 104.0713 283° West  Level Estimated
Tue 03:48:00 PM 23.6348 103.9359 283° West  Level Estimated
Tue 03:49:00 PM 23.6641 103.8004 283° West  Level Estimated
Tue 03:50:00 PM 23.6933 103.6648 283° West  Level Estimated
Tue 03:51:00 PM 23.7225 103.5292 283° West  Level Estimated
Tue 03:51:39 PM 24.5456 103.7430 289° West 499 574 34,100  Level FlightAware ADS-B
Tue 03:52:00 PM 23.7514 103.3935 283° West  Level Estimated
Tue 03:52:58 PM 24.5658 103.6899 295° West 493 567 34,100  Level FlightAware ADS-B (ZPPP / KMG)
Tue 03:53:00 PM 23.7803 103.2578 283° West  Level Estimated
Tue 03:53:29 PM 24.5955 103.6220 296° West 492 566 34,100  Level FlightAware ADS-B (ZPPP / KMG)
Tue 03:53:58 PM 24.6256 103.5552 297° West 493 567 34,100  Level FlightAware ADS-B (ZPPP / KMG)
Tue 03:54:28 PM 24.6564 103.4865 297° West 494 568 34,100  Level FlightAware ADS-B (ZPPP / KMG)
Tue 03:54:57 PM 24.6847 103.4232 296° West 493 567 34,100  Level FlightAware ADS-B (ZPPP / KMG)
Tue 03:55:29 PM 24.7172 103.3498 296° West 492 566 34,100  Level FlightAware ADS-B (ZPPP / KMG)
Tue 03:55:59 PM 24.7468 103.2827 296° West 491 565 34,100  Level FlightAware ADS-B (ZPPP / KMG)
Tue 03:56:28 PM 24.7756 103.2176 296° West 491 565 34,100  Level FlightAware ADS-B (ZPPP / KMG)
Tue 03:56:59 PM 24.8060 103.1488 296° West 492 566 34,100  Level FlightAware ADS-B (ZPPP / KMG)
Tue 03:57:28 PM 24.8352 103.0825 296° West 493 567 34,100  Level FlightAware ADS-B (ZPPP / KMG)
Tue 03:58:00 PM 24.8659 103.0127 296° West 494 568 34,100  Level FlightAware ADS-B (ZPPP / KMG)
Tue 03:58:29 PM 24.8961 102.9441 296° West 495 570 34,100  Level FlightAware ADS-B (ZPPP / KMG)
Tue 03:58:58 PM 24.9252 102.8776 296° West 495 570 34,100  Level FlightAware ADS-B (ZPPP / KMG)
Tue 03:59:28 PM 24.9547 102.8108 296° West 495 570 34,100  Level FlightAware ADS-B (ZPPP / KMG)
Tue 03:59:58 PM 24.9841 102.7434 296° West 495 570 34,100  Level FlightAware ADS-B (ZPPP / KMG)
Tue 04:00:27 PM 25.0133 102.6769 296° West 495 570 34,100  Level FlightAware ADS-B (ZPPP / KMG)
Tue 04:00:59 PM 25.0449 102.6043 296° West 496 571 34,100  Level FlightAware ADS-B (ZPPP / KMG)
Tue 04:01:18 PM 25.0594 102.5606 284° West 506 582 34,100  Level FlightAware ADS-B (ZPPP / KMG)
Tue 04:01:38 PM 25.0625 102.5063 267° West 518 596 34,100  Level FlightAware ADS-B (ZPPP / KMG)
Tue 04:01:58 PM 25.0511 102.4561 249° West 529 609 34,100  Level FlightAware ADS-B (ZPPP / KMG)
Tue 04:02:37 PM 25.0076 102.3609 243° Southwest 535 616 34,100  Level FlightAware ADS-B (ZPPP / KMG)
Tue 04:03:09 PM 24.9698 102.2832 242° Southwest 536 617 34,100  Level FlightAware ADS-B (ZPPP / KMG)
Tue 04:03:34 PM 24.9414 102.2250 242° Southwest 536 617 34,100  Level FlightAware ADS-B (ZPPP / KMG)
Tue 04:04:09 PM 24.8999 102.1394 243° Southwest 536 617 34,100  Level FlightAware ADS-B (ZPPP / KMG)
Tue 04:04:37 PM 24.8676 102.0722 243° Southwest 535 616 34,100  Level FlightAware ADS-B (ZPPP / KMG)
Tue 04:05:02 PM 24.8389 102.0123 243° Southwest 535 616 34,100  Level FlightAware ADS-B (ZPPP / KMG)
Tue 04:05:30 PM 24.8060 101.9437 243° Southwest 535 616 34,100  Level FlightAware ADS-B (ZPPP / KMG)
Tue 04:06:06 PM 24.7657 101.8597 243° Southwest 535 616 34,100  Level FlightAware ADS-B (ZPPP / KMG)
Tue 04:06:34 PM 24.7324 101.7904 243° Southwest 535 616 34,100  Level FlightAware ADS-B (ZPPP / KMG)
Tue 04:07:00 PM 24.7015 101.7261 243° Southwest 535 616 34,100  Level FlightAware ADS-B (ZPPP / KMG)
Tue 04:07:24 PM 24.6754 101.6719 243° Southwest 534 615 34,100  Level FlightAware ADS-B (ZPPP / KMG)
Tue 04:07:45 PM 24.6505 101.6201 243° Southwest 533 613 34,100  Level FlightAware ADS-B (ZPPP / KMG)
Tue 04:08:39 PM 24.5872 101.4902 242° Southwest 534 615 34,100  Level FlightAware ADS-B (ZPPP / KMG)
Tue 04:09:08 PM 24.5524 101.4202 242° Southwest 535 616 34,100  Level FlightAware ADS-B (ZPPP / KMG)
Tue 04:09:28 PM 24.5294 101.3737 242° Southwest 535 616 34,100  Level FlightAware ADS-B (ZPPP / KMG)
Tue 04:10:09 PM 24.4815 101.2773 242° Southwest 533 613 34,100  Level FlightAware ADS-B (ZPPP / KMG)
Tue 04:10:34 PM 24.4533 101.2203 242° Southwest 533 613 34,100  Level FlightAware ADS-B (ZPPP / KMG)
Tue 04:10:59 PM 24.4222 101.1577 242° Southwest 532 612 34,100 -100 Level FlightAware ADS-B (ZPPP / KMG)
Tue 04:11:34 PM 24.3806 101.0742 242° Southwest 532 612 34,000 -100 Descending FlightAware ADS-B (ZPPP / KMG)
Tue 04:11:59 PM 24.3701 101.0531 242° Southwest 532 612 34,000  Level FlightAware ADS-B (ZPPP / KMG)
Tue 04:12:49 PM 24.2979 100.9080 242° Southwest 528 608 34,000  Level FlightAware ADS-B (ZPPP / KMG)
Tue 04:13:12 PM 24.2879 100.8881 242° Southwest 527 606 34,000  Level FlightAware ADS-B (ZPPP / KMG)
Tue 04:13:41 PM 24.2398 100.7919 242° Southwest 527 606 34,000  Level FlightAware ADS-B (ZPPP / KMG)
Tue 04:14:14 PM 24.1994 100.7113 242° Southwest 525 604 34,000  Level FlightAware ADS-B (ZPPP / KMG)
Tue 04:14:48 PM 24.1594 100.6316 242° Southwest 526 605 34,000  Level FlightAware ADS-B (ZPPP / KMG)
Tue 04:15:40 PM 24.0916 100.4974 241° Southwest 528 608 34,000  Level FlightAware ADS-B (ZPPP / KMG)
Tue 04:16:16 PM 24.0498 100.4160 241° Southwest 529 609 34,000  Level FlightAware ADS-B (ZPPP / KMG)
Tue 04:16:49 PM 24.0282 100.3738 241° Southwest 529 609 34,000  Level FlightAware ADS-B (ZPPP / KMG)
Tue 04:19:00 PM 24.0868 100.0757 282° West  Level Estimated
Tue 04:20:00 PM 24.1134 99.9391 282° West  Level Estimated
Tue 04:21:00 PM 24.1400 99.8024 282° West  Level Estimated
Tue 04:22:00 PM 24.1664 99.6657 282° West  Level Estimated
Tue 04:23:00 PM 24.1927 99.5289 282° West  Level Estimated
Tue 04:24:00 PM 24.2189 99.3920 282° West  Level Estimated
Tue 04:25:00 PM 24.2449 99.2551 282° West  Level Estimated
Tue 04:26:00 PM 24.2709 99.1181 282° West  Level Estimated
Tue 04:27:00 PM 24.2967 98.9811 282° West  Level Estimated
Tue 04:28:00 PM 24.3224 98.8440 282° West  Level Estimated
Tue 04:29:00 PM 24.3479 98.7069 282° West  Level Estimated
Tue 04:30:00 PM 24.3734 98.5697 282° West  Level Estimated
Tue 04:31:00 PM 24.3987 98.4325 281° West  Level Estimated
Tue 04:32:00 PM 24.4239 98.2952 281° West  Level Estimated
Tue 04:33:00 PM 24.4489 98.1578 281° West  Level Estimated
Tue 04:34:00 PM 24.4739 98.0204 281° West  Level Estimated
Tue 04:35:00 PM 24.4987 97.8829 281° West  Level Estimated
Tue 04:36:00 PM 24.5234 97.7454 281° West  Level Estimated
Tue 04:37:00 PM 24.5480 97.6078 281° West  Level Estimated
Tue 04:38:00 PM 24.5724 97.4702 281° West  Level Estimated
Tue 04:39:00 PM 24.5967 97.3325 281° West  Level Estimated
Tue 04:40:00 PM 24.6209 97.1948 281° West  Level Estimated
Tue 04:41:00 PM 24.6450 97.0570 281° West  Level Estimated
Tue 04:42:00 PM 24.6689 96.9192 281° West  Level Estimated
Tue 04:43:00 PM 24.6928 96.7813 281° West  Level Estimated
Tue 04:44:00 PM 24.7164 96.6433 281° West  Level Estimated
Tue 04:45:00 PM 24.7400 96.5053 281° West  Level Estimated
Tue 04:46:00 PM 24.7634 96.3673 281° West  Level Estimated
Tue 04:47:00 PM 24.7868 96.2292 281° West  Level Estimated
Tue 04:48:00 PM 24.8099 96.0910 281° West  Level Estimated
Tue 04:49:00 PM 24.8330 95.9528 280° West  Level Estimated
Tue 04:50:00 PM 24.8559 95.8146 280° West  Level Estimated
Tue 04:51:00 PM 24.8787 95.6763 280° West  Level Estimated
Tue 04:52:00 PM 24.9014 95.5379 280° West  Level Estimated
Tue 04:53:00 PM 24.9240 95.3995 280° West  Level Estimated
Tue 04:54:00 PM 24.9464 95.2610 280° West  Level Estimated
Tue 04:55:00 PM 24.9687 95.1225 280° West  Level Estimated
Tue 04:56:00 PM 24.9908 94.9840 280° West  Level Estimated
Tue 04:57:00 PM 25.0129 94.8454 280° West  Level Estimated
Tue 04:58:00 PM 25.0348 94.7067 280° West  Level Estimated
Tue 04:59:00 PM 25.0566 94.5680 280° West  Level Estimated
Tue 05:00:00 PM 25.0782 94.4293 280° West  Level Estimated
Tue 05:01:00 PM 25.0997 94.2905 280° West  Level Estimated
Tue 05:02:00 PM 25.1211 94.1516 280° West  Level Estimated
Tue 05:03:00 PM 25.1424 94.0127 280° West  Level Estimated
Tue 05:04:00 PM 25.1635 93.8737 280° West  Level Estimated
Tue 05:05:00 PM 25.1845 93.7347 280° West  Level Estimated
Tue 05:06:00 PM 25.2054 93.5957 279° West  Level Estimated
Tue 05:07:00 PM 25.2262 93.4566 279° West  Level Estimated
Tue 05:08:00 PM 25.2468 93.3175 279° West  Level Estimated
Tue 05:09:00 PM 25.2672 93.1783 279° West  Level Estimated
Tue 05:10:00 PM 25.2876 93.0390 279° West  Level Estimated
Tue 05:11:00 PM 25.3078 92.8997 279° West  Level Estimated
Tue 05:12:00 PM 25.3279 92.7604 279° West  Level Estimated
Tue 05:13:00 PM 25.3479 92.6210 279° West  Level Estimated
Tue 05:14:00 PM 25.3677 92.4816 279° West  Level Estimated
Tue 05:15:00 PM 25.3874 92.3422 279° West  Level Estimated
Tue 05:16:00 PM 25.4070 92.2027 279° West  Level Estimated
Tue 05:17:00 PM 25.4264 92.0631 279° West  Level Estimated
Tue 05:18:00 PM 25.4457 91.9235 279° West  Level Estimated
Tue 05:19:00 PM 25.4649 91.7838 279° West  Level Estimated
Tue 05:20:00 PM 25.4839 91.6441 279° West  Level Estimated
Tue 05:21:00 PM 25.5028 91.5044 279° West  Level Estimated
Tue 05:22:00 PM 25.5216 91.3646 278° West  Level Estimated
Tue 05:23:00 PM 25.5402 91.2248 278° West  Level Estimated
Tue 05:24:00 PM 25.5587 91.0850 278° West  Level Estimated
Tue 05:25:00 PM 25.5771 90.9450 278° West  Level Estimated
Tue 05:25:55 PM 22.5134 89.6656 278° West 530 610 34,000  Level FlightAware ADS-B (VECC / CCU)
Tue 05:26:00 PM 25.5954 90.8051 278° West  Level Estimated
Tue 05:26:25 PM 22.5196 89.6112 277° West 530 610 34,000  Level FlightAware ADS-B (VECC / CCU)
Tue 05:26:44 PM 22.5276 89.5400 278° West 529 609 34,000  Level FlightAware ADS-B (VECC / CCU)
Tue 05:27:20 PM 22.5385 89.4434 277° West 527 606 34,000  Level FlightAware ADS-B (VECC / CCU)
Tue 05:27:55 PM 22.5492 89.3486 277° West 528 608 34,000  Level FlightAware ADS-B (VECC / CCU)
Tue 05:28:24 PM 22.5573 89.2755 277° West 529 609 34,000  Level FlightAware ADS-B (VECC / CCU)
Tue 05:28:55 PM 22.5665 89.1923 277° West 530 610 34,000  Level FlightAware ADS-B (VECC / CCU)
Tue 05:29:26 PM 22.5756 89.1097 277° West 529 609 34,000  Level FlightAware ADS-B (VECC / CCU)
Tue 05:29:54 PM 22.5840 89.0335 277° West 529 609 34,000  Level FlightAware ADS-B (VECC / CCU)
Tue 05:30:26 PM 22.5934 88.9539 279° West 528 608 34,000  Level FlightAware ADS-B (VECC / CCU)
Tue 05:30:56 PM 22.6054 88.8742 280° West 526 605 34,000  Level FlightAware ADS-B (VECC / CCU)
Tue 05:31:26 PM 22.6183 88.7961 281° West 526 605 34,000  Level FlightAware ADS-B (VECC / CCU)
Tue 05:31:58 PM 22.6274 88.7140 274° West 528 608 34,000  Level FlightAware ADS-B (VECC / CCU)
Tue 05:32:30 PM 22.6270 88.6270 267° West 536 617 34,000  Level FlightAware ADS-B (VECC / CCU)
Tue 05:33:00 PM 22.6217 88.5479 267° West 532 612 34,000  Level FlightAware ADS-B (VECC / CCU)
Tue 05:33:29 PM 22.6171 88.4688 267° West 530 610 34,000  Level FlightAware ADS-B (VECC / CCU)
Tue 05:34:00 PM 22.6122 88.3912 267° West 528 608 34,000  Level FlightAware ADS-B (VECC / CCU)
Tue 05:34:30 PM 22.5990 88.3115 254° West 530 610 34,000  Level FlightAware ADS-B (VECC / CCU)
Tue 05:35:10 PM 22.5672 88.2096 252° West 527 606 34,000  Level FlightAware ADS-B (VECC / CCU)
Tue 05:36:05 PM 22.5170 88.0764 247° West 532 612 34,000  Level FlightAware ADS-B (VECC / CCU)
Tue 05:37:06 PM 22.4581 87.9268 248° West 531 611 34,000  Level FlightAware ADS-B (VECC / CCU)
Tue 05:37:33 PM 22.4327 87.8613 248° West 530 610 34,000  Level FlightAware ADS-B (VECC / CCU)
Tue 05:38:05 PM 22.4028 87.7834 251° West 529 609 34,000  Level FlightAware ADS-B (VECC / CCU)
Tue 05:38:55 PM 22.3703 87.6524 256° West 534 615 34,000  Level FlightAware ADS-B (VECC / CCU)
Tue 05:39:21 PM 22.3553 87.5897 256° West 537 618 34,000  Level FlightAware ADS-B (VECC / CCU)
Tue 05:39:55 PM 22.3335 87.4985 256° West 539 620 34,000  Level FlightAware ADS-B (VECC / CCU)
Tue 05:40:25 PM 22.3152 87.4217 256° West 542 624 34,000  Level FlightAware ADS-B (VECC / CCU)
Tue 05:40:55 PM 22.2962 87.3422 256° West 542 624 34,000  Level FlightAware ADS-B (VECC / CCU)
Tue 05:41:25 PM 22.2788 87.2638 261° West 539 620 34,000  Level FlightAware ADS-B (VECC / CCU)
Tue 05:42:06 PM 22.2696 87.1535 266° West 537 618 34,000  Level FlightAware ADS-B (VECC / CCU)
Tue 05:42:35 PM 22.2642 87.0779 266° West 533 613 34,000  Level FlightAware ADS-B (VECC / CCU)
Tue 05:43:04 PM 22.2587 87.0016 266° West 530 610 34,000  Level FlightAware ADS-B (VECC / CCU)
Tue 05:43:35 PM 22.2527 86.9173 266° West 528 608 34,000  Level FlightAware ADS-B (VECC / CCU)
Tue 05:43:56 PM 22.2525 86.9149 266° West 527 606 34,000  Level FlightAware ADS-B (VECC / CCU)
Tue 05:46:21 PM 22.2537 86.4952 266° West 527 606 34,000  Level FlightAware ADS-B (VECC / CCU)
Tue 05:48:00 PM 22.2989 86.2731 282° West  Level Estimated
Tue 05:49:00 PM 22.3262 86.1384 282° West  Level Estimated
Tue 05:50:00 PM 22.3533 86.0037 282° West  Level Estimated
Tue 05:51:00 PM 22.3804 85.8689 282° West  Level Estimated
Tue 05:52:00 PM 22.4073 85.7341 282° West  Level Estimated
Tue 05:53:00 PM 22.4341 85.5992 282° West  Level Estimated
Tue 05:54:00 PM 22.4608 85.4643 282° West  Level Estimated
Tue 05:55:00 PM 22.4874 85.3293 282° West  Level Estimated
Tue 05:56:00 PM 22.5139 85.1943 282° West  Level Estimated
Tue 05:57:00 PM 22.5403 85.0592 282° West  Level Estimated
Tue 05:58:00 PM 22.5665 84.9240 282° West  Level Estimated
Tue 05:59:00 PM 22.5927 84.7888 282° West  Level Estimated
Tue 06:00:00 PM 22.6187 84.6536 282° West  Level Estimated
Tue 06:01:00 PM 22.6446 84.5183 282° West  Level Estimated
Tue 06:02:00 PM 22.6704 84.3829 282° West  Level Estimated
Tue 06:03:00 PM 22.6961 84.2476 282° West  Level Estimated
Tue 06:04:00 PM 22.7217 84.1121 282° West  Level Estimated
Tue 06:05:00 PM 22.7471 83.9766 282° West  Level Estimated
Tue 06:06:00 PM 22.7725 83.8410 281° West  Level Estimated
Tue 06:07:00 PM 22.7977 83.7055 281° West  Level Estimated
Tue 06:08:00 PM 22.8228 83.5698 281° West  Level Estimated
Tue 06:09:00 PM 22.8478 83.4341 281° West  Level Estimated
Tue 06:10:00 PM 22.8727 83.2983 281° West  Level Estimated
Tue 06:11:00 PM 22.8975 83.1626 281° West  Level Estimated
Tue 06:12:00 PM 22.9221 83.0267 281° West  Level Estimated
Tue 06:13:00 PM 22.9467 82.8908 281° West  Level Estimated
Tue 06:14:00 PM 22.9711 82.7549 281° West  Level Estimated
Tue 06:15:00 PM 22.9954 82.6189 281° West  Level Estimated
Tue 06:16:00 PM 23.0196 82.4828 281° West  Level Estimated
Tue 06:17:00 PM 23.0437 82.3467 281° West  Level Estimated
Tue 06:18:00 PM 23.0676 82.2106 281° West  Level Estimated
Tue 06:19:00 PM 23.0915 82.0744 281° West  Level Estimated
Tue 06:20:00 PM 23.1152 81.9382 281° West  Level Estimated
Tue 06:21:00 PM 23.1388 81.8019 281° West  Level Estimated
Tue 06:22:00 PM 23.1623 81.6655 281° West  Level Estimated
Tue 06:23:00 PM 23.1857 81.5292 281° West  Level Estimated
Tue 06:24:00 PM 23.2090 81.3927 281° West  Level Estimated
Tue 06:25:00 PM 23.2321 81.2562 280° West  Level Estimated
Tue 06:26:00 PM 23.2551 81.1197 280° West  Level Estimated
Tue 06:27:00 PM 23.2780 80.9831 280° West  Level Estimated
Tue 06:28:00 PM 23.3008 80.8465 280° West  Level Estimated
Tue 06:29:00 PM 23.3235 80.7099 280° West  Level Estimated
Tue 06:30:00 PM 23.3460 80.5732 280° West  Level Estimated
Tue 06:31:00 PM 23.3685 80.4364 280° West  Level Estimated
Tue 06:32:00 PM 23.3908 80.2996 280° West  Level Estimated
Tue 06:33:00 PM 23.4130 80.1627 280° West  Level Estimated
Tue 06:34:00 PM 23.4350 80.0258 280° West  Level Estimated
Tue 06:35:00 PM 23.4570 79.8889 280° West  Level Estimated
Tue 06:36:00 PM 23.4788 79.7519 280° West  Level Estimated
Tue 06:37:00 PM 23.5005 79.6149 280° West  Level Estimated
Tue 06:38:00 PM 23.5221 79.4778 280° West  Level Estimated
Tue 06:39:00 PM 23.5436 79.3407 280° West  Level Estimated
Tue 06:40:00 PM 23.5650 79.2035 280° West  Level Estimated
Tue 06:41:00 PM 23.5862 79.0663 280° West  Level Estimated
Tue 06:42:00 PM 23.6073 78.9291 280° West  Level Estimated
Tue 06:43:00 PM 23.6283 78.7918 280° West  Level Estimated
Tue 06:44:00 PM 23.6492 78.6544 279° West  Level Estimated
Tue 06:45:00 PM 23.6699 78.5170 279° West  Level Estimated
Tue 06:46:00 PM 23.6905 78.3796 279° West  Level Estimated
Tue 06:47:00 PM 23.7111 78.2421 279° West  Level Estimated
Tue 06:48:00 PM 23.7314 78.1046 279° West  Level Estimated
Tue 06:49:00 PM 23.7517 77.9670 279° West  Level Estimated
Tue 06:50:00 PM 23.7719 77.8294 279° West  Level Estimated
Tue 06:51:00 PM 23.7919 77.6918 279° West  Level Estimated
Tue 06:52:00 PM 23.8118 77.5541 279° West  Level Estimated
Tue 06:53:00 PM 23.8316 77.4164 279° West  Level Estimated
Tue 06:54:00 PM 23.8512 77.2786 279° West  Level Estimated
Tue 06:55:00 PM 23.8707 77.1408 279° West  Level Estimated
Tue 06:56:00 PM 23.8902 77.0029 279° West  Level Estimated
Tue 06:57:00 PM 23.9094 76.8651 279° West  Level Estimated
Tue 06:58:00 PM 23.9286 76.7271 279° West  Level Estimated
Tue 06:59:00 PM 23.9476 76.5891 279° West  Level Estimated
Tue 07:00:00 PM 23.9666 76.4511 279° West  Level Estimated
Tue 07:01:00 PM 23.9853 76.3131 279° West  Level Estimated
Tue 07:02:00 PM 24.0040 76.1750 278° West  Level Estimated
Tue 07:03:00 PM 24.0226 76.0368 278° West  Level Estimated
Tue 07:04:00 PM 24.0410 75.8986 278° West  Level Estimated
Tue 07:05:00 PM 24.0593 75.7604 278° West  Level Estimated
Tue 07:06:00 PM 24.0775 75.6222 278° West  Level Estimated
Tue 07:07:00 PM 24.0955 75.4839 278° West  Level Estimated
Tue 07:08:00 PM 24.1134 75.3455 278° West  Level Estimated
Tue 07:09:00 PM 24.1312 75.2072 278° West  Level Estimated
Tue 07:10:00 PM 24.1489 75.0687 278° West  Level Estimated
Tue 07:11:00 PM 24.1665 74.9303 278° West  Level Estimated
Tue 07:12:00 PM 24.1839 74.7918 278° West  Level Estimated
Tue 07:13:00 PM 24.2012 74.6533 278° West  Level Estimated
Tue 07:14:00 PM 24.2184 74.5147 278° West  Level Estimated
Tue 07:15:00 PM 24.2354 74.3761 278° West  Level Estimated
Tue 07:16:00 PM 24.2523 74.2375 278° West  Level Estimated
Tue 07:17:00 PM 24.2691 74.0988 278° West  Level Estimated
Tue 07:18:00 PM 24.2858 73.9601 278° West  Level Estimated
Tue 07:19:00 PM 24.3024 73.8214 277° West  Level Estimated
Tue 07:20:00 PM 24.3188 73.6826 277° West  Level Estimated
Tue 07:21:00 PM 24.3351 73.5437 277° West  Level Estimated
Tue 07:22:00 PM 24.3513 73.4049 277° West  Level Estimated
Tue 07:23:00 PM 24.3673 73.2660 277° West  Level Estimated
Tue 07:24:00 PM 24.3832 73.1271 277° West  Level Estimated
Tue 07:25:00 PM 24.3990 72.9881 277° West  Level Estimated
Tue 07:26:00 PM 24.4147 72.8491 277° West  Level Estimated
Tue 07:27:00 PM 24.4302 72.7101 277° West  Level Estimated
Tue 07:28:00 PM 24.4456 72.5710 277° West  Level Estimated
Tue 07:29:00 PM 24.4609 72.4319 277° West  Level Estimated
Tue 07:30:00 PM 24.4760 72.2928 277° West  Level Estimated
Tue 07:31:00 PM 24.4911 72.1536 277° West  Level Estimated
Tue 07:32:00 PM 24.5060 72.0144 277° West  Level Estimated
Tue 07:33:00 PM 24.5208 71.8752 277° West  Level Estimated
Tue 07:34:00 PM 24.5354 71.7359 277° West  Level Estimated
Tue 07:35:00 PM 24.5499 71.5967 277° West  Level Estimated
Tue 07:36:00 PM 24.5643 71.4573 277° West  Level Estimated
Tue 07:37:00 PM 24.5786 71.3180 276° West  Level Estimated
Tue 07:38:00 PM 24.5927 71.1786 276° West  Level Estimated
Tue 07:39:00 PM 24.6067 71.0392 276° West  Level Estimated
Tue 07:40:00 PM 24.6206 70.8997 276° West  Level Estimated
Tue 07:41:00 PM 24.6343 70.7602 276° West  Level Estimated
Tue 07:42:00 PM 24.6479 70.6207 276° West  Level Estimated
Tue 07:43:00 PM 24.6614 70.4812 276° West  Level Estimated
Tue 07:44:00 PM 24.6748 70.3416 276° West  Level Estimated
Tue 07:45:00 PM 24.6880 70.2020 276° West  Level Estimated
Tue 07:46:00 PM 24.7011 70.0623 276° West  Level Estimated
Tue 07:47:00 PM 24.7141 69.9227 276° West  Level Estimated
Tue 07:48:00 PM 24.7269 69.7830 276° West  Level Estimated
Tue 07:49:00 PM 24.7396 69.6433 276° West  Level Estimated
Tue 07:50:00 PM 24.7522 69.5035 276° West  Level Estimated
Tue 07:51:00 PM 24.7647 69.3637 276° West  Level Estimated
Tue 07:52:00 PM 24.7770 69.2240 276° West  Level Estimated
Tue 07:53:00 PM 24.7892 69.0841 276° West  Level Estimated
Tue 07:54:00 PM 24.8013 68.9443 275° West  Level Estimated
Tue 07:55:00 PM 24.8132 68.8044 275° West  Level Estimated
Tue 07:56:00 PM 24.8250 68.6645 275° West  Level Estimated
Tue 07:57:00 PM 24.8367 68.5245 275° West  Level Estimated
Tue 07:58:00 PM 24.8482 68.3846 275° West  Level Estimated
Tue 07:59:00 PM 24.8596 68.2446 275° West  Level Estimated
Tue 08:00:00 PM 24.8709 68.1045 275° West  Level Estimated
Tue 08:01:00 PM 24.8821 67.9645 275° West  Level Estimated
Tue 08:02:00 PM 24.8931 67.8244 275° West  Level Estimated
Tue 08:03:00 PM 24.9040 67.6843 275° West  Level Estimated
Tue 08:04:00 PM 24.9147 67.5442 275° West  Level Estimated
Tue 08:05:00 PM 24.9254 67.4041 275° West  Level Estimated
Tue 08:06:00 PM 24.9359 67.2639 275° West  Level Estimated
Tue 08:07:00 PM 24.9462 67.1237 275° West  Level Estimated
Tue 08:08:00 PM 24.9565 66.9835 275° West  Level Estimated
Tue 08:09:00 PM 24.9666 66.8433 275° West  Level Estimated
Tue 08:10:00 PM 24.9765 66.7030 275° West  Level Estimated
Tue 08:11:00 PM 24.9864 66.5627 274° West  Level Estimated
Tue 08:12:00 PM 24.9961 66.4224 274° West  Level Estimated
Tue 08:13:00 PM 25.0057 66.2821 274° West  Level Estimated
Tue 08:14:00 PM 25.0151 66.1417 274° West  Level Estimated
Tue 08:15:00 PM 25.0245 66.0014 274° West  Level Estimated
Tue 08:16:00 PM 25.0336 65.8610 274° West  Level Estimated
Tue 08:17:00 PM 25.0427 65.7206 274° West  Level Estimated
Tue 08:18:00 PM 25.0516 65.5801 274° West  Level Estimated
Tue 08:19:00 PM 25.0604 65.4397 274° West  Level Estimated
Tue 08:20:00 PM 25.0690 65.2992 274° West  Level Estimated
Tue 08:21:00 PM 25.0776 65.1587 274° West  Level Estimated
Tue 08:22:00 PM 25.0860 65.0182 274° West  Level Estimated
Tue 08:23:00 PM 25.0942 64.8777 274° West  Level Estimated
Tue 08:24:00 PM 25.1024 64.7371 274° West  Level Estimated
Tue 08:25:00 PM 25.1103 64.5965 274° West  Level Estimated
Tue 08:26:00 PM 25.1182 64.4560 274° West  Level Estimated
Tue 08:27:00 PM 25.1259 64.3154 274° West  Level Estimated
Tue 08:28:00 PM 25.1335 64.1747 273° West  Level Estimated
Tue 08:29:00 PM 25.1410 64.0341 273° West  Level Estimated
Tue 08:30:00 PM 25.1483 63.8934 273° West  Level Estimated
Tue 08:31:00 PM 25.1555 63.7528 273° West  Level Estimated
Tue 08:32:00 PM 25.1626 63.6121 273° West  Level Estimated
Tue 08:33:00 PM 25.1695 63.4714 273° West  Level Estimated
Tue 08:34:00 PM 25.1763 63.3307 273° West  Level Estimated
Tue 08:35:00 PM 25.1830 63.1899 273° West  Level Estimated
Tue 08:36:00 PM 25.1895 63.0492 273° West  Level Estimated
Tue 08:37:00 PM 25.1959 62.9084 273° West  Level Estimated
Tue 08:38:00 PM 25.2022 62.7676 273° West  Level Estimated
Tue 08:39:00 PM 25.2083 62.6268 273° West  Level Estimated
Tue 08:40:00 PM 25.2143 62.4860 273° West  Level Estimated
Tue 08:41:00 PM 25.2202 62.3452 273° West  Level Estimated
Tue 08:42:00 PM 25.2259 62.2043 273° West  Level Estimated
Tue 08:43:00 PM 25.2315 62.0635 273° West  Level Estimated
Tue 08:44:00 PM 25.2370 61.9226 272° West  Level Estimated
Tue 08:45:00 PM 25.2423 61.7817 272° West  Level Estimated
Tue 08:46:00 PM 25.2475 61.6409 272° West  Level Estimated
Tue 08:47:00 PM 25.2526 61.5000 272° West  Level Estimated
Tue 08:48:00 PM 25.2575 61.3591 272° West  Level Estimated
Tue 08:49:00 PM 25.2623 61.2181 272° West  Level Estimated
Tue 08:50:00 PM 25.2670 61.0772 272° West  Level Estimated
Tue 08:51:00 PM 25.2715 60.9362 272° West  Level Estimated
Tue 08:52:00 PM 25.2759 60.7953 272° West  Level Estimated
Tue 08:53:00 PM 25.2801 60.6543 272° West  Level Estimated
Tue 08:54:00 PM 25.2843 60.5134 272° West  Level Estimated
Tue 08:55:00 PM 25.2883 60.3724 272° West  Level Estimated
Tue 08:56:00 PM 25.2921 60.2314 272° West  Level Estimated
Tue 08:57:00 PM 25.2959 60.0904 272° West  Level Estimated
Tue 08:58:00 PM 25.2995 59.9494 272° West  Level Estimated
Tue 08:59:00 PM 25.3029 59.8083 272° West  Level Estimated
Tue 09:00:00 PM 25.3062 59.6673 272° West  Level Estimated
Tue 09:01:00 PM 25.3094 59.5263 271° West  Level Estimated
Tue 09:02:00 PM 25.3125 59.3852 271° West  Level Estimated
Tue 09:03:00 PM 25.3154 59.2442 271° West  Level Estimated
Tue 09:04:00 PM 25.3182 59.1031 271° West  Level Estimated
Tue 09:05:00 PM 25.3209 58.9621 271° West  Level Estimated
Tue 09:06:00 PM 25.3234 58.8210 271° West  Level Estimated
Tue 09:07:00 PM 25.3258 58.6799 271° West  Level Estimated
Tue 09:08:00 PM 25.3280 58.5388 271° West  Level Estimated
Tue 09:09:00 PM 25.3301 58.3978 271° West  Level Estimated
Tue 09:10:00 PM 25.3321 58.2567 271° West  Level Estimated
Tue 09:11:00 PM 25.3339 58.1156 271° West  Level Estimated
Tue 09:12:00 PM 25.3357 57.9745 271° West  Level Estimated
Tue 09:13:00 PM 25.3372 57.8334 271° West  Level Estimated
Tue 09:14:00 PM 25.3387 57.6923 271° West  Level Estimated
Tue 09:15:00 PM 25.3400 57.5512 271° West  Level Estimated
Tue 09:16:00 PM 25.3412 57.4101 271° West  Level Estimated
Tue 09:17:00 PM 25.3422 57.2690 270° West  Level Estimated
Tue 09:18:00 PM 25.3431 57.1278 270° West  Level Estimated
Tue 09:19:00 PM 25.3439 56.9867 270° West  Level Estimated
Tue 09:20:00 PM 25.3445 56.8456 270° West  Level Estimated
Tue 09:21:00 PM 25.3450 56.7045 270° West  Level Estimated
Tue 09:22:00 PM 25.3454 56.5634 270° West  Level Estimated
Tue 09:23:00 PM 25.3456 56.4222 270° West  Level Estimated
Tue 09:24:00 PM 25.3457 56.2811 270° West  Level Estimated
Tue 09:25:00 PM 25.3457 56.1400 270° West  Level Estimated
Tue 09:26:00 PM 25.3455 55.9989 270° West  Level Estimated
Tue 09:27:00 PM 25.3452 55.8577 270° West  Level Estimated
Tue 09:28:00 PM 25.3448 55.7166 270° West  Level Estimated
Tue 09:29:00 PM 25.3442 55.5755 270° West  Level Estimated
Tue 09:30:00 PM 25.3435 55.4344 270° West  Level Estimated
Tue 09:31:00 PM 25.3426 55.2933 270° West  Level Estimated
Tue 09:32:00 PM 25.3417 55.1521 270° West  Level Estimated
Tue 09:33:00 PM 25.3406 55.0110 270° West  Level Estimated
Tue 09:34:00 PM 25.3393 54.8699 269° West  Level Estimated
Tue 09:35:00 PM 25.3379 54.7288 269° West  Level Estimated
Tue 09:36:00 PM 25.3364 54.5877 269° West  Level Estimated
Tue 09:37:00 PM 25.3348 54.4466 269° West  Level Estimated
Tue 09:38:00 PM 25.3330 54.3055 269° West  Level Estimated
Tue 09:39:00 PM 25.3311 54.1644 269° West  Level Estimated
Tue 09:40:00 PM 25.3290 54.0233 269° West  Level Estimated
Tue 09:41:00 PM 25.3268 53.8823 269° West  Level Estimated
Tue 09:42:00 PM 25.3245 53.7412 269° West  Level Estimated
Tue 09:43:00 PM 25.3221 53.6001 269° West  Level Estimated
Tue 09:44:00 PM 25.3195 53.4591 269° West  Level Estimated
Tue 09:45:00 PM 25.3168 53.3180 269° West  Level Estimated
Tue 09:46:00 PM 25.3139 53.1769 269° West  Level Estimated
Tue 09:47:00 PM 25.3109 53.0359 269° West  Level Estimated
Tue 09:48:00 PM 25.3078 52.8949 269° West  Level Estimated
Tue 09:49:00 PM 25.3045 52.7538 269° West  Level Estimated
Tue 09:50:00 PM 25.3011 52.6128 269° West  Level Estimated
Tue 09:51:00 PM 25.2976 52.4718 268° West  Level Estimated
Tue 09:52:00 PM 25.2939 52.3308 268° West  Level Estimated
Tue 09:53:00 PM 25.2901 52.1898 268° West  Level Estimated
Tue 09:54:00 PM 25.2862 52.0488 268° West  Level Estimated
Tue 09:55:00 PM 25.2822 51.9078 268° West  Level Estimated

Login

Don't have an account? Register now (free) for customized features, flight alerts, and more!